Terminal Aerodrome Forecast
Issued by NWS

Home | Current Version | Previous Version | Text Only | Print | Product List | Glossary On
Versions: 1 2 3 4 5 6 7 8 9 10 11 12 13
000
FTUS43 KOAX 271740
TAFCDR
TAF
KCDR 271740Z 2718/2818 17014G21KT P6SM SCT080
     FM272000 18015G25KT P6SM VCTS SCT070CB BKN120
     FM280300 33011KT P6SM SCT120
     FM280600 34005KT P6SM SCT200=

USA.gov is the U.S. government's official web portal to all federal, state and local government web resources and services.